sensor_id;sensor_type;location;lat;lon;timestamp;P1;durP1;ratioP1;P2;durP2;ratioP2
15502;SDS011;7853;52.186;5.948;2023-04-03T00:03:19;2.57;;;1.48;;
15502;SDS011;7853;52.186;5.948;2023-04-03T00:03:19;3.05;;;1.52;;
15502;SDS011;7853;52.186;5.948;2023-04-03T00:03:19;1.76;;;1.33;;
15502;SDS011;7853;52.186;5.948;2023-04-03T00:04:13;2.36;;;1.41;;
15502;SDS011;7853;52.186;5.948;2023-04-03T00:05:00;2.81;;;1.48;;
15502;SDS011;7853;52.186;5.948;2023-04-03T00:05:46;2.47;;;1.24;;
15502;SDS011;7853;52.186;5.948;2023-04-03T00:06:39;2.03;;;1.43;;
15502;SDS011;7853;52.186;5.948;2023-04-03T00:07:36;1.80;;;1.29;;
15502;SDS011;7853;52.186;5.948;2023-04-03T00:08:34;1.94;;;1.40;;
15502;SDS011;7853;52.186;5.948;2023-04-03T00:09:33;2.48;;;1.40;;
15502;SDS011;7853;52.186;5.948;2023-04-03T00:10:33;2.41;;;1.27;;
15502;SDS011;7853;52.186;5.948;2023-04-03T00:11:33;1.90;;;1.36;;
15502;SDS011;7853;52.186;5.948;2023-04-03T00:12:33;2.32;;;1.43;;
15502;SDS011;7853;52.186;5.948;2023-04-03T00:13:33;2.21;;;1.41;;
15502;SDS011;7853;52.186;5.948;2023-04-03T00:14:33;2.36;;;1.37;;
15502;SDS011;7853;52.186;5.948;2023-04-03T00:15:33;2.45;;;1.43;;
15502;SDS011;7853;52.186;5.948;2023-04-03T00:16:33;2.82;;;1.49;;
15502;SDS011;7853;52.186;5.948;2023-04-03T00:17:34;3.18;;;1.52;;
15502;SDS011;7853;52.186;5.948;2023-04-03T00:18:33;3.05;;;1.40;;
15502;SDS011;7853;52.186;5.948;2023-04-03T00:19:33;2.78;;;1.43;;
15502;SDS011;7853;52.186;5.948;2023-04-03T00:20:33;2.76;;;1.45;;
15502;SDS011;7853;52.186;5.948;2023-04-03T00:21:33;2.69;;;1.42;;
15502;SDS011;7853;52.186;5.948;2023-04-03T00:22:33;2.20;;;1.27;;
15502;SDS011;7853;52.186;5.948;2023-04-03T00:23:34;1.92;;;1.27;;
15502;SDS011;7853;52.186;5.948;2023-04-03T00:24:33;2.49;;;1.54;;
15502;SDS011;7853;52.186;5.948;2023-04-03T00:25:33;2.67;;;1.59;;
15502;SDS011;7853;52.186;5.948;2023-04-03T00:26:33;2.88;;;1.41;;
15502;SDS011;7853;52.186;5.948;2023-04-03T00:27:35;2.31;;;1.27;;
15502;SDS011;7853;52.186;5.948;2023-04-03T00:28:33;1.94;;;1.25;;
15502;SDS011;7853;52.186;5.948;2023-04-03T00:29:33;2.55;;;1.36;;
15502;SDS011;7853;52.186;5.948;2023-04-03T00:30:34;2.60;;;1.43;;
15502;SDS011;7853;52.186;5.948;2023-04-03T00:31:34;2.01;;;1.32;;
15502;SDS011;7853;52.186;5.948;2023-04-03T00:32:34;2.40;;;1.24;;
15502;SDS011;7853;52.186;5.948;2023-04-03T00:33:34;1.88;;;1.36;;
15502;SDS011;7853;52.186;5.948;2023-04-03T00:34:34;1.94;;;1.26;;
15502;SDS011;7853;52.186;5.948;2023-04-03T00:35:34;1.80;;;1.34;;
15502;SDS011;7853;52.186;5.948;2023-04-03T00:36:34;2.09;;;1.20;;
15502;SDS011;7853;52.186;5.948;2023-04-03T00:37:34;2.24;;;1.27;;
15502;SDS011;7853;52.186;5.948;2023-04-03T00:38:34;2.07;;;1.31;;
15502;SDS011;7853;52.186;5.948;2023-04-03T00:39:34;2.41;;;1.40;;
15502;SDS011;7853;52.186;5.948;2023-04-03T00:40:35;2.28;;;1.36;;
15502;SDS011;7853;52.186;5.948;2023-04-03T00:41:34;2.04;;;1.27;;
15502;SDS011;7853;52.186;5.948;2023-04-03T00:42:35;2.30;;;1.31;;
15502;SDS011;7853;52.186;5.948;2023-04-03T00:43:34;2.22;;;1.37;;
15502;SDS011;7853;52.186;5.948;2023-04-03T00:45:47;2.31;;;1.43;;
15502;SDS011;7853;52.186;5.948;2023-04-03T00:46:40;3.59;;;1.53;;
15502;SDS011;7853;52.186;5.948;2023-04-03T00:47:37;2.18;;;1.31;;
15502;SDS011;7853;52.186;5.948;2023-04-03T00:48:36;3.34;;;1.39;;
15502;SDS011;7853;52.186;5.948;2023-04-03T00:49:34;2.35;;;1.25;;
15502;SDS011;7853;52.186;5.948;2023-04-03T00:50:34;2.33;;;1.45;;
15502;SDS011;7853;52.186;5.948;2023-04-03T00:51:33;2.24;;;1.45;;
15502;SDS011;7853;52.186;5.948;2023-04-03T00:52:33;2.38;;;1.47;;
15502;SDS011;7853;52.186;5.948;2023-04-03T00:53:35;2.47;;;1.37;;
15502;SDS011;7853;52.186;5.948;2023-04-03T00:54:33;2.70;;;1.49;;
15502;SDS011;7853;52.186;5.948;2023-04-03T00:55:33;3.08;;;1.62;;
15502;SDS011;7853;52.186;5.948;2023-04-03T00:56:33;2.80;;;1.51;;
15502;SDS011;7853;52.186;5.948;2023-04-03T00:57:33;1.90;;;1.36;;
15502;SDS011;7853;52.186;5.948;2023-04-03T00:58:35;2.06;;;1.30;;
15502;SDS011;7853;52.186;5.948;2023-04-03T00:59:34;3.44;;;1.53;;
15502;SDS011;7853;52.186;5.948;2023-04-03T01:00:34;2.64;;;1.38;;
15502;SDS011;7853;52.186;5.948;2023-04-03T01:01:34;1.92;;;1.36;;
15502;SDS011;7853;52.186;5.948;2023-04-03T01:02:34;2.34;;;1.38;;
15502;SDS011;7853;52.186;5.948;2023-04-03T01:03:34;2.68;;;1.37;;
15502;SDS011;7853;52.186;5.948;2023-04-03T01:04:35;2.53;;;1.46;;
15502;SDS011;7853;52.186;5.948;2023-04-03T01:05:34;2.46;;;1.51;;
15502;SDS011;7853;52.186;5.948;2023-04-03T01:06:34;1.93;;;1.38;;
15502;SDS011;7853;52.186;5.948;2023-04-03T01:07:34;1.87;;;1.42;;
15502;SDS011;7853;52.186;5.948;2023-04-03T01:08:34;1.93;;;1.35;;
15502;SDS011;7853;52.186;5.948;2023-04-03T01:09:34;1.95;;;1.43;;
15502;SDS011;7853;52.186;5.948;2023-04-03T01:10:34;2.15;;;1.30;;
15502;SDS011;7853;52.186;5.948;2023-04-03T01:11:34;2.50;;;1.36;;
15502;SDS011;7853;52.186;5.948;2023-04-03T01:12:35;2.58;;;1.44;;
15502;SDS011;7853;52.186;5.948;2023-04-03T01:13:34;2.62;;;1.43;;
15502;SDS011;7853;52.186;5.948;2023-04-03T01:14:34;2.45;;;1.41;;
15502;SDS011;7853;52.186;5.948;2023-04-03T01:15:34;2.58;;;1.38;;
15502;SDS011;7853;52.186;5.948;2023-04-03T01:16:34;2.64;;;1.36;;
15502;SDS011;7853;52.186;5.948;2023-04-03T01:17:35;1.86;;;1.28;;
15502;SDS011;7853;52.186;5.948;2023-04-03T01:18:36;1.81;;;1.26;;
15502;SDS011;7853;52.186;5.948;2023-04-03T01:19:34;2.58;;;1.43;;
15502;SDS011;7853;52.186;5.948;2023-04-03T01:20:57;2.61;;;1.44;;
15502;SDS011;7853;52.186;5.948;2023-04-03T01:21:57;2.23;;;1.33;;
15502;SDS011;7853;52.186;5.948;2023-04-03T01:23:03;2.91;;;1.33;;
15502;SDS011;7853;52.186;5.948;2023-04-03T01:23:51;1.67;;;1.38;;
15502;SDS011;7853;52.186;5.948;2023-04-03T01:24:39;2.44;;;1.37;;
15502;SDS011;7853;52.186;5.948;2023-04-03T01:25:37;2.59;;;1.44;;
15502;SDS011;7853;52.186;5.948;2023-04-03T01:26:34;2.01;;;1.36;;
15502;SDS011;7853;52.186;5.948;2023-04-03T01:27:33;2.10;;;1.35;;
15502;SDS011;7853;52.186;5.948;2023-04-03T01:28:33;2.39;;;1.41;;
15502;SDS011;7853;52.186;5.948;2023-04-03T01:29:32;2.76;;;1.40;;
15502;SDS011;7853;52.186;5.948;2023-04-03T01:30:34;2.19;;;1.33;;
15502;SDS011;7853;52.186;5.948;2023-04-03T01:31:41;2.07;;;1.37;;
15502;SDS011;7853;52.186;5.948;2023-04-03T01:32:32;2.55;;;1.36;;
15502;SDS011;7853;52.186;5.948;2023-04-03T01:33:33;2.14;;;1.34;;
15502;SDS011;7853;52.186;5.948;2023-04-03T01:34:33;2.63;;;1.42;;
15502;SDS011;7853;52.186;5.948;2023-04-03T01:35:33;2.44;;;1.41;;
15502;SDS011;7853;52.186;5.948;2023-04-03T01:36:33;2.65;;;1.52;;
15502;SDS011;7853;52.186;5.948;2023-04-03T01:37:33;2.59;;;1.32;;
15502;SDS011;7853;52.186;5.948;2023-04-03T01:38:33;2.25;;;1.55;;
15502;SDS011;7853;52.186;5.948;2023-04-03T01:39:33;2.07;;;1.23;;
15502;SDS011;7853;52.186;5.948;2023-04-03T01:40:33;2.30;;;1.35;;
15502;SDS011;7853;52.186;5.948;2023-04-03T01:41:33;2.61;;;1.37;;
15502;SDS011;7853;52.186;5.948;2023-04-03T01:42:33;1.98;;;1.31;;
15502;SDS011;7853;52.186;5.948;2023-04-03T01:43:33;2.12;;;1.32;;
15502;SDS011;7853;52.186;5.948;2023-04-03T01:44:34;2.13;;;1.25;;
15502;SDS011;7853;52.186;5.948;2023-04-03T01:45:33;2.45;;;1.29;;
15502;SDS011;7853;52.186;5.948;2023-04-03T01:46:34;2.58;;;1.39;;
15502;SDS011;7853;52.186;5.948;2023-04-03T01:47:34;3.47;;;1.45;;
15502;SDS011;7853;52.186;5.948;2023-04-03T01:48:33;2.73;;;1.48;;
15502;SDS011;7853;52.186;5.948;2023-04-03T01:49:34;2.38;;;1.49;;
15502;SDS011;7853;52.186;5.948;2023-04-03T01:50:33;2.19;;;1.36;;
15502;SDS011;7853;52.186;5.948;2023-04-03T01:51:34;2.40;;;1.45;;
15502;SDS011;7853;52.186;5.948;2023-04-03T01:52:35;1.83;;;1.36;;
15502;SDS011;7853;52.186;5.948;2023-04-03T01:53:33;3.01;;;1.44;;
15502;SDS011;7853;52.186;5.948;2023-04-03T01:54:33;2.01;;;1.59;;
15502;SDS011;7853;52.186;5.948;2023-04-03T01:55:34;3.07;;;1.39;;
15502;SDS011;7853;52.186;5.948;2023-04-03T01:56:34;2.34;;;1.48;;
15502;SDS011;7853;52.186;5.948;2023-04-03T01:57:34;2.22;;;1.66;;
15502;SDS011;7853;52.186;5.948;2023-04-03T01:58:34;2.84;;;1.64;;
15502;SDS011;7853;52.186;5.948;2023-04-03T01:59:34;2.70;;;1.73;;
15502;SDS011;7853;52.186;5.948;2023-04-03T02:00:34;2.55;;;1.94;;
15502;SDS011;7853;52.186;5.948;2023-04-03T02:01:34;2.92;;;1.90;;
15502;SDS011;7853;52.186;5.948;2023-04-03T02:02:34;3.16;;;1.82;;
15502;SDS011;7853;52.186;5.948;2023-04-03T02:03:34;3.43;;;1.83;;
15502;SDS011;7853;52.186;5.948;2023-04-03T02:04:35;3.23;;;2.04;;
15502;SDS011;7853;52.186;5.948;2023-04-03T02:05:34;3.17;;;1.91;;
15502;SDS011;7853;52.186;5.948;2023-04-03T02:06:34;3.02;;;1.83;;
15502;SDS011;7853;52.186;5.948;2023-04-03T02:07:34;2.95;;;1.73;;
15502;SDS011;7853;52.186;5.948;2023-04-03T02:08:34;2.96;;;1.85;;
15502;SDS011;7853;52.186;5.948;2023-04-03T02:09:34;2.51;;;1.92;;
15502;SDS011;7853;52.186;5.948;2023-04-03T02:10:35;3.06;;;1.94;;
15502;SDS011;7853;52.186;5.948;2023-04-03T02:11:34;2.84;;;2.00;;
15502;SDS011;7853;52.186;5.948;2023-04-03T02:12:34;3.59;;;2.19;;
15502;SDS011;7853;52.186;5.948;2023-04-03T02:13:34;2.46;;;1.98;;
15502;SDS011;7853;52.186;5.948;2023-04-03T02:14:34;2.80;;;1.89;;
15502;SDS011;7853;52.186;5.948;2023-04-03T02:15:37;2.67;;;1.88;;
15502;SDS011;7853;52.186;5.948;2023-04-03T02:16:34;2.49;;;2.02;;
15502;SDS011;7853;52.186;5.948;2023-04-03T02:17:34;3.24;;;2.33;;
15502;SDS011;7853;52.186;5.948;2023-04-03T02:18:34;2.92;;;2.05;;
15502;SDS011;7853;52.186;5.948;2023-04-03T02:19:34;2.64;;;1.78;;
15502;SDS011;7853;52.186;5.948;2023-04-03T02:20:34;2.70;;;1.96;;
15502;SDS011;7853;52.186;5.948;2023-04-03T02:21:34;2.54;;;1.90;;
15502;SDS011;7853;52.186;5.948;2023-04-03T02:22:34;2.42;;;1.88;;
15502;SDS011;7853;52.186;5.948;2023-04-03T02:23:34;2.39;;;1.77;;
15502;SDS011;7853;52.186;5.948;2023-04-03T02:24:34;2.98;;;1.74;;
15502;SDS011;7853;52.186;5.948;2023-04-03T02:25:34;3.05;;;1.68;;
15502;SDS011;7853;52.186;5.948;2023-04-03T02:26:35;2.84;;;1.81;;
15502;SDS011;7853;52.186;5.948;2023-04-03T02:27:34;3.35;;;1.83;;
15502;SDS011;7853;52.186;5.948;2023-04-03T02:28:34;2.74;;;1.68;;
15502;SDS011;7853;52.186;5.948;2023-04-03T02:29:34;2.44;;;1.71;;
15502;SDS011;7853;52.186;5.948;2023-04-03T02:30:34;3.01;;;1.76;;
15502;SDS011;7853;52.186;5.948;2023-04-03T02:31:34;2.78;;;1.65;;
15502;SDS011;7853;52.186;5.948;2023-04-03T02:32:34;3.00;;;1.69;;
15502;SDS011;7853;52.186;5.948;2023-04-03T02:33:34;2.68;;;1.84;;
15502;SDS011;7853;52.186;5.948;2023-04-03T02:34:34;2.26;;;1.64;;
15502;SDS011;7853;52.186;5.948;2023-04-03T02:35:34;2.50;;;1.71;;
15502;SDS011;7853;52.186;5.948;2023-04-03T02:36:35;2.06;;;1.53;;
15502;SDS011;7853;52.186;5.948;2023-04-03T02:37:34;1.89;;;1.50;;
15502;SDS011;7853;52.186;5.948;2023-04-03T02:38:35;2.74;;;1.73;;
15502;SDS011;7853;52.186;5.948;2023-04-03T02:39:34;2.20;;;1.64;;
15502;SDS011;7853;52.186;5.948;2023-04-03T02:40:34;2.82;;;1.59;;
15502;SDS011;7853;52.186;5.948;2023-04-03T02:41:35;2.24;;;1.51;;
15502;SDS011;7853;52.186;5.948;2023-04-03T02:42:34;2.34;;;1.57;;
15502;SDS011;7853;52.186;5.948;2023-04-03T02:43:35;3.38;;;1.69;;
15502;SDS011;7853;52.186;5.948;2023-04-03T02:44:34;2.46;;;1.69;;
15502;SDS011;7853;52.186;5.948;2023-04-03T02:45:34;2.47;;;1.58;;
15502;SDS011;7853;52.186;5.948;2023-04-03T02:46:34;2.35;;;1.62;;
15502;SDS011;7853;52.186;5.948;2023-04-03T02:47:34;2.45;;;1.52;;
15502;SDS011;7853;52.186;5.948;2023-04-03T02:48:36;2.22;;;1.47;;
15502;SDS011;7853;52.186;5.948;2023-04-03T02:49:35;2.88;;;1.68;;
15502;SDS011;7853;52.186;5.948;2023-04-03T02:50:35;2.91;;;1.48;;
15502;SDS011;7853;52.186;5.948;2023-04-03T02:51:34;2.31;;;1.50;;
15502;SDS011;7853;52.186;5.948;2023-04-03T02:52:35;2.67;;;1.62;;
15502;SDS011;7853;52.186;5.948;2023-04-03T02:53:35;2.49;;;1.66;;
15502;SDS011;7853;52.186;5.948;2023-04-03T02:54:35;2.61;;;1.56;;
15502;SDS011;7853;52.186;5.948;2023-04-03T02:55:35;2.96;;;1.62;;
15502;SDS011;7853;52.186;5.948;2023-04-03T02:56:34;2.39;;;1.60;;
15502;SDS011;7853;52.186;5.948;2023-04-03T02:57:34;3.16;;;1.69;;
15502;SDS011;7853;52.186;5.948;2023-04-03T02:58:34;2.09;;;1.51;;
15502;SDS011;7853;52.186;5.948;2023-04-03T02:59:35;2.10;;;1.62;;
15502;SDS011;7853;52.186;5.948;2023-04-03T03:00:35;2.93;;;1.60;;
15502;SDS011;7853;52.186;5.948;2023-04-03T03:01:34;3.17;;;1.74;;
15502;SDS011;7853;52.186;5.948;2023-04-03T03:02:35;2.54;;;1.63;;
15502;SDS011;7853;52.186;5.948;2023-04-03T03:03:35;2.27;;;1.52;;
15502;SDS011;7853;52.186;5.948;2023-04-03T03:04:35;2.36;;;1.43;;
15502;SDS011;7853;52.186;5.948;2023-04-03T03:05:34;3.16;;;1.51;;
15502;SDS011;7853;52.186;5.948;2023-04-03T03:06:34;2.60;;;1.68;;
15502;SDS011;7853;52.186;5.948;2023-04-03T03:07:35;2.48;;;1.64;;
15502;SDS011;7853;52.186;5.948;2023-04-03T03:08:35;2.63;;;1.63;;
15502;SDS011;7853;52.186;5.948;2023-04-03T03:09:35;2.43;;;1.62;;
15502;SDS011;7853;52.186;5.948;2023-04-03T03:10:34;2.27;;;1.65;;
15502;SDS011;7853;52.186;5.948;2023-04-03T03:11:34;2.88;;;1.58;;
15502;SDS011;7853;52.186;5.948;2023-04-03T03:12:35;2.89;;;1.59;;
15502;SDS011;7853;52.186;5.948;2023-04-03T03:13:34;2.37;;;1.55;;
15502;SDS011;7853;52.186;5.948;2023-04-03T03:14:35;2.48;;;1.64;;
15502;SDS011;7853;52.186;5.948;2023-04-03T03:15:35;2.90;;;1.64;;
15502;SDS011;7853;52.186;5.948;2023-04-03T03:16:34;2.06;;;1.35;;
15502;SDS011;7853;52.186;5.948;2023-04-03T03:17:35;2.47;;;1.50;;
15502;SDS011;7853;52.186;5.948;2023-04-03T03:18:35;2.24;;;1.55;;
15502;SDS011;7853;52.186;5.948;2023-04-03T03:19:34;2.34;;;1.61;;
15502;SDS011;7853;52.186;5.948;2023-04-03T03:20:35;2.42;;;1.55;;
15502;SDS011;7853;52.186;5.948;2023-04-03T03:21:35;2.18;;;1.44;;
15502;SDS011;7853;52.186;5.948;2023-04-03T03:22:35;2.39;;;1.59;;
15502;SDS011;7853;52.186;5.948;2023-04-03T03:23:34;2.46;;;1.42;;
15502;SDS011;7853;52.186;5.948;2023-04-03T03:24:35;2.26;;;1.51;;
15502;SDS011;7853;52.186;5.948;2023-04-03T03:25:37;2.00;;;1.47;;
15502;SDS011;7853;52.186;5.948;2023-04-03T03:26:35;2.44;;;1.58;;
15502;SDS011;7853;52.186;5.948;2023-04-03T03:27:35;2.48;;;1.57;;
15502;SDS011;7853;52.186;5.948;2023-04-03T03:28:35;2.81;;;1.63;;
15502;SDS011;7853;52.186;5.948;2023-04-03T03:29:34;2.15;;;1.67;;
15502;SDS011;7853;52.186;5.948;2023-04-03T03:30:35;2.35;;;1.59;;
15502;SDS011;7853;52.186;5.948;2023-04-03T03:31:35;2.15;;;1.50;;
15502;SDS011;7853;52.186;5.948;2023-04-03T03:32:34;2.67;;;1.52;;
15502;SDS011;7853;52.186;5.948;2023-04-03T03:33:35;2.90;;;1.57;;
15502;SDS011;7853;52.186;5.948;2023-04-03T03:34:35;3.32;;;1.66;;
15502;SDS011;7853;52.186;5.948;2023-04-03T03:35:34;2.22;;;1.58;;
15502;SDS011;7853;52.186;5.948;2023-04-03T03:36:35;2.66;;;1.53;;
15502;SDS011;7853;52.186;5.948;2023-04-03T03:37:35;2.38;;;1.66;;
15502;SDS011;7853;52.186;5.948;2023-04-03T03:38:35;2.27;;;1.53;;
15502;SDS011;7853;52.186;5.948;2023-04-03T03:39:35;2.00;;;1.48;;
15502;SDS011;7853;52.186;5.948;2023-04-03T03:40:37;2.34;;;1.35;;
15502;SDS011;7853;52.186;5.948;2023-04-03T03:41:34;2.23;;;1.50;;
15502;SDS011;7853;52.186;5.948;2023-04-03T03:42:34;2.05;;;1.45;;
15502;SDS011;7853;52.186;5.948;2023-04-03T03:43:35;2.39;;;1.45;;
15502;SDS011;7853;52.186;5.948;2023-04-03T03:44:34;2.02;;;1.54;;
15502;SDS011;7853;52.186;5.948;2023-04-03T03:45:35;2.13;;;1.49;;
15502;SDS011;7853;52.186;5.948;2023-04-03T03:46:35;2.80;;;1.44;;
15502;SDS011;7853;52.186;5.948;2023-04-03T03:47:35;2.48;;;1.58;;
15502;SDS011;7853;52.186;5.948;2023-04-03T03:48:36;2.66;;;1.45;;
15502;SDS011;7853;52.186;5.948;2023-04-03T03:49:34;2.73;;;1.59;;
15502;SDS011;7853;52.186;5.948;2023-04-03T03:50:34;2.64;;;1.57;;
15502;SDS011;7853;52.186;5.948;2023-04-03T03:51:34;2.38;;;1.58;;
15502;SDS011;7853;52.186;5.948;2023-04-03T03:52:34;2.34;;;1.51;;
15502;SDS011;7853;52.186;5.948;2023-04-03T03:53:34;1.98;;;1.47;;
15502;SDS011;7853;52.186;5.948;2023-04-03T03:54:35;2.40;;;1.52;;
15502;SDS011;7853;52.186;5.948;2023-04-03T03:55:35;2.23;;;1.57;;
15502;SDS011;7853;52.186;5.948;2023-04-03T03:56:35;2.27;;;1.78;;
15502;SDS011;7853;52.186;5.948;2023-04-03T03:57:34;2.29;;;1.53;;
15502;SDS011;7853;52.186;5.948;2023-04-03T03:58:35;2.75;;;1.78;;
15502;SDS011;7853;52.186;5.948;2023-04-03T03:59:35;2.42;;;1.65;;
15502;SDS011;7853;52.186;5.948;2023-04-03T04:00:35;2.65;;;1.82;;
15502;SDS011;7853;52.186;5.948;2023-04-03T04:01:35;3.39;;;1.70;;
15502;SDS011;7853;52.186;5.948;2023-04-03T04:02:34;2.17;;;1.57;;
15502;SDS011;7853;52.186;5.948;2023-04-03T04:03:35;2.73;;;1.59;;
15502;SDS011;7853;52.186;5.948;2023-04-03T04:04:35;2.36;;;1.75;;
15502;SDS011;7853;52.186;5.948;2023-04-03T04:05:35;2.82;;;1.74;;
15502;SDS011;7853;52.186;5.948;2023-04-03T04:06:35;2.30;;;1.54;;
15502;SDS011;7853;52.186;5.948;2023-04-03T04:07:35;2.36;;;1.75;;
15502;SDS011;7853;52.186;5.948;2023-04-03T04:08:35;2.52;;;1.61;;
15502;SDS011;7853;52.186;5.948;2023-04-03T04:09:35;2.48;;;1.79;;
15502;SDS011;7853;52.186;5.948;2023-04-03T04:10:35;3.16;;;1.81;;
15502;SDS011;7853;52.186;5.948;2023-04-03T04:11:34;2.35;;;1.68;;
15502;SDS011;7853;52.186;5.948;2023-04-03T04:12:35;2.06;;;1.67;;
15502;SDS011;7853;52.186;5.948;2023-04-03T04:13:35;2.81;;;1.65;;
15502;SDS011;7853;52.186;5.948;2023-04-03T04:14:34;2.73;;;1.92;;
15502;SDS011;7853;52.186;5.948;2023-04-03T04:15:35;2.36;;;1.57;;
15502;SDS011;7853;52.186;5.948;2023-04-03T04:16:35;2.61;;;1.63;;
15502;SDS011;7853;52.186;5.948;2023-04-03T04:17:35;2.45;;;1.53;;
15502;SDS011;7853;52.186;5.948;2023-04-03T04:18:35;3.21;;;1.68;;
15502;SDS011;7853;52.186;5.948;2023-04-03T04:19:35;2.62;;;1.54;;
15502;SDS011;7853;52.186;5.948;2023-04-03T04:20:34;2.60;;;1.81;;
15502;SDS011;7853;52.186;5.948;2023-04-03T04:21:34;2.51;;;1.70;;
15502;SDS011;7853;52.186;5.948;2023-04-03T04:22:35;2.69;;;1.66;;
15502;SDS011;7853;52.186;5.948;2023-04-03T04:23:34;3.00;;;1.77;;
15502;SDS011;7853;52.186;5.948;2023-04-03T04:24:35;2.94;;;1.79;;
15502;SDS011;7853;52.186;5.948;2023-04-03T04:25:34;2.27;;;1.58;;
15502;SDS011;7853;52.186;5.948;2023-04-03T04:26:35;2.95;;;1.56;;
15502;SDS011;7853;52.186;5.948;2023-04-03T04:27:34;2.65;;;1.54;;
15502;SDS011;7853;52.186;5.948;2023-04-03T04:28:35;2.83;;;1.54;;
15502;SDS011;7853;52.186;5.948;2023-04-03T04:29:34;2.51;;;1.59;;
15502;SDS011;7853;52.186;5.948;2023-04-03T04:30:35;2.82;;;1.75;;
15502;SDS011;7853;52.186;5.948;2023-04-03T04:31:35;2.81;;;1.65;;
15502;SDS011;7853;52.186;5.948;2023-04-03T04:32:34;3.17;;;1.58;;
15502;SDS011;7853;52.186;5.948;2023-04-03T04:33:35;2.87;;;1.79;;
15502;SDS011;7853;52.186;5.948;2023-04-03T04:34:35;3.59;;;1.73;;
15502;SDS011;7853;52.186;5.948;2023-04-03T04:35:35;2.85;;;1.68;;
15502;SDS011;7853;52.186;5.948;2023-04-03T04:36:35;2.34;;;1.61;;
15502;SDS011;7853;52.186;5.948;2023-04-03T04:37:35;2.57;;;1.56;;
15502;SDS011;7853;52.186;5.948;2023-04-03T04:38:35;2.64;;;1.69;;
15502;SDS011;7853;52.186;5.948;2023-04-03T04:39:35;3.25;;;1.57;;
15502;SDS011;7853;52.186;5.948;2023-04-03T04:40:34;2.48;;;1.65;;
15502;SDS011;7853;52.186;5.948;2023-04-03T04:41:35;2.39;;;1.52;;
15502;SDS011;7853;52.186;5.948;2023-04-03T04:42:35;2.55;;;1.54;;
15502;SDS011;7853;52.186;5.948;2023-04-03T04:43:35;2.67;;;1.65;;
15502;SDS011;7853;52.186;5.948;2023-04-03T04:44:35;2.38;;;1.58;;
15502;SDS011;7853;52.186;5.948;2023-04-03T04:45:35;2.70;;;1.45;;
15502;SDS011;7853;52.186;5.948;2023-04-03T04:46:34;2.53;;;1.64;;
15502;SDS011;7853;52.186;5.948;2023-04-03T04:47:35;2.90;;;1.68;;
15502;SDS011;7853;52.186;5.948;2023-04-03T04:48:35;2.95;;;1.62;;
15502;SDS011;7853;52.186;5.948;2023-04-03T04:49:35;3.31;;;1.74;;
15502;SDS011;7853;52.186;5.948;2023-04-03T04:50:35;3.02;;;1.82;;
15502;SDS011;7853;52.186;5.948;2023-04-03T04:51:35;3.83;;;1.75;;
15502;SDS011;7853;52.186;5.948;2023-04-03T04:52:35;2.98;;;1.72;;
15502;SDS011;7853;52.186;5.948;2023-04-03T04:53:34;2.78;;;1.73;;
15502;SDS011;7853;52.186;5.948;2023-04-03T04:54:35;2.94;;;1.77;;
15502;SDS011;7853;52.186;5.948;2023-04-03T04:55:35;3.17;;;1.93;;
15502;SDS011;7853;52.186;5.948;2023-04-03T04:56:35;3.39;;;1.86;;
15502;SDS011;7853;52.186;5.948;2023-04-03T04:57:35;3.98;;;1.81;;
15502;SDS011;7853;52.186;5.948;2023-04-03T04:58:35;4.33;;;2.10;;
15502;SDS011;7853;52.186;5.948;2023-04-03T04:59:34;2.84;;;1.66;;
15502;SDS011;7853;52.186;5.948;2023-04-03T05:00:36;2.88;;;1.75;;
15502;SDS011;7853;52.186;5.948;2023-04-03T05:01:35;3.61;;;1.99;;
15502;SDS011;7853;52.186;5.948;2023-04-03T05:02:35;3.70;;;1.94;;
15502;SDS011;7853;52.186;5.948;2023-04-03T05:03:35;3.14;;;1.87;;
15502;SDS011;7853;52.186;5.948;2023-04-03T05:04:35;2.59;;;1.72;;
15502;SDS011;7853;52.186;5.948;2023-04-03T05:05:35;2.86;;;1.84;;
15502;SDS011;7853;52.186;5.948;2023-04-03T05:06:34;2.64;;;1.93;;
15502;SDS011;7853;52.186;5.948;2023-04-03T05:07:35;2.87;;;1.70;;
15502;SDS011;7853;52.186;5.948;2023-04-03T05:08:35;3.74;;;1.93;;
15502;SDS011;7853;52.186;5.948;2023-04-03T05:09:35;3.26;;;1.91;;
15502;SDS011;7853;52.186;5.948;2023-04-03T05:10:34;3.34;;;2.17;;
15502;SDS011;7853;52.186;5.948;2023-04-03T05:11:35;4.18;;;1.82;;
15502;SDS011;7853;52.186;5.948;2023-04-03T05:12:35;3.69;;;1.79;;
15502;SDS011;7853;52.186;5.948;2023-04-03T05:13:35;3.35;;;1.69;;
15502;SDS011;7853;52.186;5.948;2023-04-03T05:14:35;2.99;;;1.74;;
15502;SDS011;7853;52.186;5.948;2023-04-03T05:15:35;3.41;;;1.98;;
15502;SDS011;7853;52.186;5.948;2023-04-03T05:16:35;3.77;;;2.01;;
15502;SDS011;7853;52.186;5.948;2023-04-03T05:17:35;3.64;;;1.99;;
15502;SDS011;7853;52.186;5.948;2023-04-03T05:18:35;3.42;;;1.90;;
15502;SDS011;7853;52.186;5.948;2023-04-03T05:19:35;2.84;;;1.77;;
15502;SDS011;7853;52.186;5.948;2023-04-03T05:20:35;3.38;;;1.85;;
15502;SDS011;7853;52.186;5.948;2023-04-03T05:21:34;3.09;;;1.93;;
15502;SDS011;7853;52.186;5.948;2023-04-03T05:22:35;3.61;;;1.94;;
15502;SDS011;7853;52.186;5.948;2023-04-03T05:23:35;3.51;;;2.05;;
15502;SDS011;7853;52.186;5.948;2023-04-03T05:24:35;2.95;;;1.85;;
15502;SDS011;7853;52.186;5.948;2023-04-03T05:25:36;3.24;;;1.94;;
15502;SDS011;7853;52.186;5.948;2023-04-03T05:26:35;3.29;;;2.10;;
15502;SDS011;7853;52.186;5.948;2023-04-03T05:27:35;3.11;;;1.87;;
15502;SDS011;7853;52.186;5.948;2023-04-03T05:28:35;3.57;;;2.16;;
15502;SDS011;7853;52.186;5.948;2023-04-03T05:29:35;4.04;;;2.05;;
15502;SDS011;7853;52.186;5.948;2023-04-03T05:30:35;3.38;;;2.04;;
15502;SDS011;7853;52.186;5.948;2023-04-03T05:31:35;4.00;;;2.11;;
15502;SDS011;7853;52.186;5.948;2023-04-03T05:32:35;3.00;;;1.75;;
15502;SDS011;7853;52.186;5.948;2023-04-03T05:33:34;3.92;;;2.03;;
15502;SDS011;7853;52.186;5.948;2023-04-03T05:34:35;3.51;;;2.01;;
15502;SDS011;7853;52.186;5.948;2023-04-03T05:35:35;3.81;;;2.27;;
15502;SDS011;7853;52.186;5.948;2023-04-03T05:36:35;3.79;;;2.16;;
15502;SDS011;7853;52.186;5.948;2023-04-03T05:37:35;3.51;;;1.87;;
15502;SDS011;7853;52.186;5.948;2023-04-03T05:38:35;3.89;;;1.86;;
15502;SDS011;7853;52.186;5.948;2023-04-03T05:39:36;3.85;;;2.02;;
15502;SDS011;7853;52.186;5.948;2023-04-03T05:40:35;3.49;;;1.81;;
15502;SDS011;7853;52.186;5.948;2023-04-03T05:41:34;3.03;;;1.80;;
15502;SDS011;7853;52.186;5.948;2023-04-03T05:42:35;3.08;;;1.86;;
15502;SDS011;7853;52.186;5.948;2023-04-03T05:43:35;3.14;;;2.08;;
15502;SDS011;7853;52.186;5.948;2023-04-03T05:44:35;3.13;;;1.93;;
15502;SDS011;7853;52.186;5.948;2023-04-03T05:45:35;3.79;;;1.93;;
15502;SDS011;7853;52.186;5.948;2023-04-03T05:46:35;3.54;;;1.84;;
15502;SDS011;7853;52.186;5.948;2023-04-03T05:47:35;3.71;;;1.86;;
15502;SDS011;7853;52.186;5.948;2023-04-03T05:48:35;3.15;;;1.78;;
15502;SDS011;7853;52.186;5.948;2023-04-03T05:49:35;3.49;;;1.86;;
15502;SDS011;7853;52.186;5.948;2023-04-03T05:50:35;4.31;;;1.82;;
15502;SDS011;7853;52.186;5.948;2023-04-03T05:51:35;3.90;;;2.19;;
15502;SDS011;7853;52.186;5.948;2023-04-03T05:52:35;3.30;;;1.91;;
15502;SDS011;7853;52.186;5.948;2023-04-03T05:53:35;3.77;;;1.99;;
15502;SDS011;7853;52.186;5.948;2023-04-03T05:54:35;4.24;;;1.95;;
15502;SDS011;7853;52.186;5.948;2023-04-03T05:55:35;3.90;;;2.00;;
15502;SDS011;7853;52.186;5.948;2023-04-03T05:56:35;3.25;;;1.84;;
15502;SDS011;7853;52.186;5.948;2023-04-03T05:57:35;5.27;;;1.89;;
15502;SDS011;7853;52.186;5.948;2023-04-03T05:58:35;3.54;;;1.79;;
15502;SDS011;7853;52.186;5.948;2023-04-03T05:59:35;4.19;;;1.63;;
15502;SDS011;7853;52.186;5.948;2023-04-03T06:00:35;3.53;;;1.68;;
15502;SDS011;7853;52.186;5.948;2023-04-03T06:01:35;2.86;;;1.66;;
15502;SDS011;7853;52.186;5.948;2023-04-03T06:02:35;3.77;;;1.77;;
15502;SDS011;7853;52.186;5.948;2023-04-03T06:03:34;3.85;;;1.71;;
15502;SDS011;7853;52.186;5.948;2023-04-03T06:04:35;3.06;;;1.61;;
15502;SDS011;7853;52.186;5.948;2023-04-03T06:05:35;3.53;;;1.89;;
15502;SDS011;7853;52.186;5.948;2023-04-03T06:06:42;3.21;;;2.02;;
15502;SDS011;7853;52.186;5.948;2023-04-03T06:07:34;3.10;;;1.80;;